createdAt,value
2018-09-25T00:55:46.391Z,20.1
2018-09-25T00:56:35.374Z,20.1
2018-09-25T00:57:26.208Z,20.1
2018-09-25T00:58:15.760Z,20.1
2018-09-25T00:59:06.086Z,20.1
2018-09-25T00:59:55.282Z,20.1
2018-09-25T01:00:46.762Z,20.1
2018-09-25T01:01:36.247Z,20.1
2018-09-25T01:02:26.303Z,20.1
2018-09-25T01:03:16.141Z,20.1
2018-09-25T01:04:06.473Z,20.1
2018-09-25T01:04:56.211Z,20.1
2018-09-25T01:05:45.760Z,20.1
2018-09-25T01:06:36.429Z,20.1
2018-09-25T01:07:25.910Z,20.1
2018-09-25T01:08:16.453Z,20.1
2018-09-25T01:09:06.785Z,20.1
2018-09-25T01:09:56.287Z,20
2018-09-25T01:10:46.090Z,20
2018-09-25T01:11:36.777Z,20
2018-09-25T01:12:26.763Z,20
2018-09-25T01:13:16.527Z,20
2018-09-25T01:14:06.028Z,20.1
2018-09-25T01:14:57.019Z,20
2018-09-25T01:15:47.018Z,20
2018-09-25T01:16:37.394Z,20
2018-09-25T01:17:27.429Z,20
2018-09-25T01:18:16.919Z,20
2018-09-25T01:19:08.621Z,20
2018-09-25T01:19:57.322Z,20
2018-09-25T01:20:47.458Z,20
2018-09-25T01:21:36.617Z,20
2018-09-25T01:22:26.371Z,20
2018-09-25T01:23:17.540Z,20
2018-09-25T01:24:07.631Z,20
2018-09-25T01:24:57.802Z,20
2018-09-25T01:25:48.044Z,20
2018-09-25T01:26:37.539Z,20
2018-09-25T01:27:27.936Z,20
2018-09-25T01:28:16.301Z,20
2018-09-25T01:29:07.487Z,20
2018-09-25T01:29:58.388Z,20
2018-09-25T01:30:47.340Z,20
2018-09-25T01:31:38.206Z,20
2018-09-25T01:32:28.316Z,20
2018-09-25T01:33:17.806Z,20
2018-09-25T01:34:08.086Z,20
2018-09-25T01:34:57.696Z,20
2018-09-25T01:35:49.043Z,20
2018-09-25T01:36:38.798Z,20
2018-09-25T01:37:28.288Z,20
2018-09-25T01:38:19.267Z,20
2018-09-25T01:39:09.031Z,20
2018-09-25T01:39:59.388Z,20
2018-09-25T01:40:48.488Z,20
2018-09-25T01:41:39.205Z,20
2018-09-25T01:42:28.992Z,20
2018-09-25T01:43:18.545Z,20
2018-09-25T01:44:09.123Z,20
2018-09-25T01:44:58.618Z,20
2018-09-25T01:45:49.525Z,20
2018-09-25T01:46:39.975Z,20
2018-09-25T01:47:29.495Z,20
2018-09-25T01:48:20.023Z,19.9
2018-09-25T01:49:09.807Z,20
2018-09-25T01:49:59.637Z,20
2018-09-25T01:50:49.332Z,20
2018-09-25T01:51:39.964Z,20
2018-09-25T01:52:30.600Z,20
2018-09-25T01:53:19.852Z,19.9
2018-09-25T01:54:09.566Z,19.9
2018-09-25T01:55:00.319Z,19.9
2018-09-25T01:55:50.060Z,19.9
2018-09-25T01:56:39.562Z,20
2018-09-25T01:57:30.499Z,19.9
2018-09-25T01:58:19.939Z,20
2018-09-25T01:59:10.274Z,19.9
2018-09-25T02:00:00.267Z,19.9
2018-09-25T02:00:50.334Z,20
2018-09-25T02:01:40.421Z,19.9
2018-09-25T02:02:30.829Z,19.9
2018-09-25T02:03:20.336Z,19.9
2018-09-25T02:04:10.924Z,19.9
2018-09-25T02:05:00.429Z,19.9
2018-09-25T02:05:50.258Z,19.9
2018-09-25T02:06:41.127Z,19.9
2018-09-25T02:07:29.829Z,19.9
2018-09-25T02:08:21.506Z,19.9
2018-09-25T02:09:11.023Z,19.9
2018-09-25T02:10:01.104Z,19.9
2018-09-25T02:10:50.590Z,19.9
2018-09-25T02:11:41.196Z,19.9
2018-09-25T02:12:31.242Z,19.9
2018-09-25T02:13:21.855Z,19.9
2018-09-25T02:14:11.902Z,19.9
2018-09-25T02:15:01.150Z,19.9
2018-09-25T02:15:51.171Z,19.9
2018-09-25T02:16:41.614Z,19.9
2018-09-25T02:17:31.648Z,19.9
2018-09-25T02:18:21.491Z,19.9
2018-09-25T02:19:12.281Z,19.9
2018-09-25T02:20:01.786Z,19.9
2018-09-25T02:20:51.914Z,19.9
2018-09-25T02:21:41.658Z,19.9
2018-09-25T02:22:32.596Z,19.9
2018-09-25T02:23:22.900Z,19.9
2018-09-25T02:24:12.046Z,19.9
2018-09-25T02:25:02.761Z,19.9
2018-09-25T02:25:52.018Z,19.9
2018-09-25T02:26:41.289Z,19.9
2018-09-25T02:27:31.331Z,19.9
2018-09-25T02:28:21.065Z,19.9
2018-09-25T02:29:11.463Z,19.9
2018-09-25T02:30:00.055Z,19.9
2018-09-25T02:30:50.375Z,19.9
2018-09-25T02:31:41.885Z,19.9
2018-09-25T02:32:31.475Z,19.9
2018-09-25T02:33:22.158Z,19.9
2018-09-25T02:34:10.630Z,19.9
2018-09-25T02:35:03.243Z,19.9
2018-09-25T02:35:53.034Z,19.9
2018-09-25T02:36:43.562Z,19.9
2018-09-25T02:37:33.145Z,19.9
2018-09-25T02:38:22.917Z,19.9
2018-09-25T02:39:13.544Z,19.9
2018-09-25T02:40:03.387Z,19.9
2018-09-25T02:40:53.711Z,19.9
2018-09-25T02:41:43.724Z,19.9
2018-09-25T02:42:32.607Z,19.9
2018-09-25T02:43:23.888Z,19.9
2018-09-25T02:44:14.276Z,19.9
2018-09-25T02:45:03.986Z,19.9
2018-09-25T02:45:53.208Z,19.9
2018-09-25T02:46:44.657Z,19.9
2018-09-25T02:47:33.877Z,19.9
2018-09-25T02:48:24.226Z,19.9
2018-09-25T02:49:14.518Z,19.9
2018-09-25T02:50:03.486Z,19.9
2018-09-25T02:50:54.416Z,19.9
2018-09-25T02:51:44.721Z,19.9
2018-09-25T02:52:34.266Z,19.9
2018-09-25T02:53:24.588Z,19.9
2018-09-25T02:54:14.878Z,19.9
2018-09-25T02:55:02.794Z,19.9
2018-09-25T02:55:54.780Z,19.9
2018-09-25T02:56:44.848Z,19.9
2018-09-25T02:57:34.320Z,19.9
2018-09-25T02:58:24.979Z,19.9
2018-09-25T02:59:14.492Z,19.9
2018-09-25T03:00:04.566Z,19.9
2018-09-25T03:00:55.301Z,19.9
2018-09-25T03:01:44.809Z,19.9
2018-09-25T03:02:35.344Z,19.9
2018-09-25T03:03:25.052Z,19.9
2018-09-25T03:04:15.476Z,19.9
2018-09-25T03:05:05.727Z,19.9
2018-09-25T03:05:55.481Z,19.9
2018-09-25T03:06:45.933Z,19.8
2018-09-25T03:07:35.436Z,19.9
2018-09-25T03:08:26.005Z,19.9
2018-09-25T03:09:16.078Z,19.8
2018-09-25T03:10:05.908Z,19.9
2018-09-25T03:10:55.940Z,19.8
2018-09-25T03:11:45.696Z,19.8
2018-09-25T03:12:36.653Z,19.8
2018-09-25T03:13:25.220Z,19.9
2018-09-25T03:14:16.231Z,19.8
2018-09-25T03:15:06.503Z,19.8
2018-09-25T03:15:56.302Z,19.8
2018-09-25T03:16:46.063Z,19.8
2018-09-25T03:17:36.713Z,19.9
2018-09-25T03:18:26.274Z,19.8
2018-09-25T03:19:17.512Z,19.8
2018-09-25T03:20:06.842Z,19.8
2018-09-25T03:20:55.813Z,19.8
2018-09-25T03:21:46.525Z,19.8
2018-09-25T03:22:36.602Z,19.8
2018-09-25T03:23:26.326Z,19.8
2018-09-25T03:24:16.495Z,19.8
2018-09-25T03:25:06.835Z,19.8
2018-09-25T03:25:57.101Z,19.8
2018-09-25T03:26:47.115Z,19.8
2018-09-25T03:27:36.590Z,19.8
2018-09-25T03:28:26.686Z,19.8
2018-09-25T03:29:17.275Z,19.8
2018-09-25T03:30:07.634Z,19.8
2018-09-25T03:30:57.411Z,19.8
2018-09-25T03:31:47.336Z,19.8
2018-09-25T03:32:37.414Z,19.8
2018-09-25T03:33:26.986Z,19.8
2018-09-25T03:34:17.694Z,19.8
2018-09-25T03:35:07.108Z,19.8
2018-09-25T03:35:58.076Z,19.8
2018-09-25T03:36:47.549Z,19.8
2018-09-25T03:37:38.019Z,19.8
2018-09-25T03:38:28.019Z,19.8
2018-09-25T03:39:18.227Z,19.8
2018-09-25T03:40:07.956Z,19.8
2018-09-25T03:40:58.566Z,19.8
2018-09-25T03:41:48.162Z,19.8
2018-09-25T03:42:37.426Z,19.8
2018-09-25T03:43:28.036Z,19.8
2018-09-25T03:44:17.899Z,19.8
2018-09-25T03:45:08.206Z,19.8
2018-09-25T03:45:58.640Z,19.8
2018-09-25T03:46:48.262Z,19.8
2018-09-25T03:47:38.046Z,19.8
2018-09-25T03:48:27.840Z,19.8
2018-09-25T05:24:37.637Z,19.4
2018-09-25T05:25:27.334Z,19.4
2018-09-25T05:26:17.191Z,19.4
2018-09-25T05:27:06.954Z,19.4
2018-09-25T05:27:56.675Z,19.4
2018-09-25T05:28:47.604Z,19.4
2018-09-25T05:29:37.172Z,19.4
2018-09-25T05:30:27.350Z,19.4
2018-09-25T05:31:17.277Z,19.4
2018-09-25T05:32:06.244Z,19.4
2018-09-25T05:32:57.381Z,19.4
2018-09-25T05:33:46.597Z,19.4
2018-09-25T05:34:37.264Z,19.4
2018-09-25T05:35:27.587Z,19.4
2018-09-25T05:36:17.001Z,19.4
2018-09-25T05:37:06.818Z,19.4
2018-09-25T05:37:58.009Z,19.4
2018-09-25T05:38:48.054Z,19.4
2018-09-25T05:39:38.111Z,19.4
2018-09-25T05:40:28.187Z,19.4
2018-09-25T05:41:18.274Z,19.4
2018-09-25T05:42:08.561Z,19.4
2018-09-25T05:42:58.068Z,19.4
2018-09-25T05:43:48.417Z,19.4
2018-09-25T05:44:38.483Z,19.4
2018-09-25T05:45:28.237Z,19.4
2018-09-25T05:46:18.636Z,19.4
2018-09-25T05:47:08.653Z,19.4
2018-09-25T05:47:59.046Z,19.4
2018-09-25T05:48:50.548Z,19.4
2018-09-25T05:49:38.770Z,19.4
2018-09-25T05:50:29.407Z,19.4
2018-09-25T05:51:19.211Z,19.4
2018-09-25T05:52:08.917Z,19.4
2018-09-25T05:52:58.965Z,19.4
2018-09-25T05:53:50.265Z,19.4
2018-09-25T05:54:39.538Z,19.4
2018-09-25T05:55:29.498Z,19.4
2018-09-25T05:56:19.142Z,19.4
2018-09-25T05:57:09.453Z,19.4
2018-09-25T05:58:00.066Z,19.4
2018-09-25T05:58:49.846Z,19.4
2018-09-25T05:59:39.615Z,19.4
2018-09-25T06:00:29.962Z,19.4
2018-09-25T06:01:20.336Z,19.4
2018-09-25T06:02:10.134Z,19.4
2018-09-25T06:03:00.108Z,19.3
2018-09-25T06:03:49.630Z,19.3
2018-09-25T06:04:40.008Z,19.3
2018-09-25T06:05:30.317Z,19.4
2018-09-25T06:06:19.598Z,19.3
2018-09-25T06:07:10.460Z,19.3
2018-09-25T06:08:00.144Z,19.3
2018-09-25T06:08:50.281Z,19.3
2018-09-25T06:09:41.279Z,19.3
2018-09-25T06:10:30.128Z,19.3
2018-09-25T06:11:21.050Z,19.3
2018-09-25T06:12:10.252Z,19.3
2018-09-25T06:12:59.562Z,19.3
2018-09-25T06:13:50.632Z,19.3
2018-09-25T06:14:40.276Z,19.3
2018-09-25T06:15:30.578Z,19.3
2018-09-25T06:16:20.347Z,19.3
2018-09-25T06:17:09.822Z,19.3
2018-09-25T06:18:00.480Z,19.3
2018-09-25T06:18:51.017Z,19.3
2018-09-25T06:19:40.912Z,19.3
2018-09-25T06:20:31.529Z,19.3
2018-09-25T06:21:21.227Z,19.3
2018-09-25T06:22:10.694Z,19.3
2018-09-25T06:23:02.467Z,19.3
2018-09-25T06:23:51.150Z,19.3
2018-09-25T06:24:41.461Z,19.3
2018-09-25T06:25:31.564Z,19.3
2018-09-25T06:26:21.648Z,19.3
2018-09-25T06:27:11.144Z,19.3
2018-09-25T06:28:01.508Z,19.3
2018-09-25T06:28:53.763Z,19.3
2018-09-25T06:29:41.382Z,19.3
2018-09-25T06:30:32.516Z,19.3
2018-09-25T06:31:22.828Z,19.3
2018-09-25T06:32:11.616Z,19.3
2018-09-25T06:33:01.834Z,19.3
2018-09-25T06:33:51.804Z,19.3
2018-09-25T06:34:42.992Z,19.3
2018-09-25T06:35:31.796Z,19.3
2018-09-25T06:36:22.485Z,19.3
2018-09-25T06:37:12.314Z,19.3
2018-09-25T06:38:01.533Z,19.3
2018-09-25T06:38:52.354Z,19.3
2018-09-25T06:39:42.131Z,19.3
2018-09-25T06:40:31.993Z,19.3
2018-09-25T06:41:23.276Z,19.3
2018-09-25T06:42:12.303Z,19.3
2018-09-25T06:43:02.635Z,19.3
2018-09-25T06:43:52.398Z,19.3
2018-09-25T06:44:41.791Z,19.3
2018-09-25T06:45:33.074Z,19.3
2018-09-25T06:46:23.868Z,19.2
2018-09-25T06:47:14.302Z,19.2
2018-09-25T06:48:03.270Z,19.3
2018-09-25T06:48:53.576Z,19.3
2018-09-25T06:49:43.323Z,19.2
2018-09-25T06:50:32.807Z,19.3
2018-09-25T06:51:23.557Z,19.2
2018-09-25T06:52:13.293Z,19.2
2018-09-25T06:53:03.605Z,19.3
2018-09-25T06:53:53.328Z,19.2
2018-09-25T06:54:44.196Z,19.2
2018-09-25T06:55:33.780Z,19.2
2018-09-25T06:56:23.235Z,19.2
2018-09-25T06:57:14.263Z,19.2
2018-09-25T06:58:02.613Z,19.2
2018-09-25T06:58:53.858Z,19.2
2018-09-25T06:59:44.185Z,19.2
2018-09-25T07:00:34.017Z,19.2
2018-09-25T07:01:24.046Z,19.2
2018-09-25T07:02:14.906Z,19.2
2018-09-25T07:03:03.934Z,19.2
2018-09-25T07:03:54.182Z,19.2
2018-09-25T07:04:43.962Z,19.2
2018-09-25T07:05:34.356Z,19.2
2018-09-25T07:06:23.565Z,19.2
2018-09-25T07:07:14.732Z,19.2
2018-09-25T07:08:04.484Z,19.2
2018-09-25T07:08:54.441Z,19.2
2018-09-25T07:09:46.456Z,19.2
2018-09-25T07:10:37.836Z,19.2
2018-09-25T07:11:24.828Z,19.2
2018-09-25T07:12:15.131Z,19.2
2018-09-25T07:13:04.331Z,19.2
2018-09-25T07:13:54.394Z,19.1
2018-09-25T07:14:44.253Z,19.2
2018-09-25T07:15:34.790Z,19.1
2018-09-25T07:16:24.263Z,19.2
2018-09-25T07:17:15.756Z,19.2
2018-09-25T07:18:06.751Z,19.1
2018-09-25T07:18:55.015Z,19.1
2018-09-25T07:19:44.595Z,19.1
2018-09-25T07:20:35.159Z,19.1
2018-09-25T07:21:25.967Z,19.1
2018-09-25T07:22:15.787Z,19.1
2018-09-25T07:23:06.033Z,19.1
2018-09-25T07:23:55.085Z,19.1
2018-09-25T07:24:47.777Z,19.1
2018-09-25T07:25:35.344Z,19.1
2018-09-25T07:26:24.998Z,19.1
2018-09-25T07:27:15.398Z,19.1
2018-09-25T07:28:05.711Z,19.1
2018-09-25T07:28:55.745Z,19.1
2018-09-25T07:29:45.558Z,19.1
2018-09-25T07:30:35.855Z,19.1
2018-09-25T07:31:26.231Z,19.1
2018-09-25T07:32:15.175Z,19.1
2018-09-25T07:33:06.633Z,19.1
2018-09-25T07:33:55.601Z,19.1
2018-09-25T07:34:46.227Z,19.1
2018-09-25T07:35:36.354Z,19.1
2018-09-25T07:36:26.608Z,19.1
2018-09-25T07:37:16.427Z,19.1
2018-09-25T07:38:06.410Z,19.1
2018-09-25T07:38:55.742Z,19.1
2018-09-25T07:39:44.279Z,19.1
2018-09-25T07:40:34.649Z,19.1
2018-09-25T07:41:24.814Z,19.1
2018-09-25T07:42:14.432Z,19.1
2018-09-25T07:43:05.177Z,19.1
2018-09-25T07:43:55.636Z,19.1
2018-09-25T07:44:46.449Z,19.1
2018-09-25T07:45:35.209Z,19.1
2018-09-25T07:46:26.332Z,19.1
2018-09-25T07:47:13.709Z,19.1
2018-09-25T07:48:08.320Z,19.1
2018-09-25T07:48:57.249Z,19.1
2018-09-25T07:49:47.046Z,19.1
2018-09-25T07:50:37.179Z,19.1
2018-09-25T07:51:27.176Z,19.1
2018-09-25T07:52:18.564Z,19.1
2018-09-25T07:53:08.147Z,19.1
2018-09-25T07:53:58.367Z,19.1
2018-09-25T07:54:48.163Z,19.1
2018-09-25T07:55:39.010Z,19.1
2018-09-25T07:56:28.851Z,19.1
2018-09-25T07:57:18.820Z,19.1
2018-09-25T07:58:09.527Z,19.1
2018-09-25T07:58:56.741Z,19.1
2018-09-25T07:59:47.191Z,19.1
2018-09-25T08:00:38.398Z,19.1
2018-09-25T08:01:27.615Z,19.1
2018-09-25T08:02:17.994Z,19.1
2018-09-25T08:03:08.797Z,19.1
2018-09-25T08:03:58.481Z,19.1
2018-09-25T08:04:47.595Z,19.1
2018-09-25T08:05:38.742Z,19.1
2018-09-25T08:06:28.530Z,19.1
2018-09-25T08:07:18.343Z,19.1
2018-09-25T08:08:08.723Z,19.1
2018-09-25T08:08:58.959Z,19.1
2018-09-25T08:09:48.401Z,19.1
2018-09-25T08:10:39.501Z,19.1
2018-09-25T08:11:28.757Z,19.1
2018-09-25T08:12:18.840Z,19.1
2018-09-25T08:13:08.030Z,19.1
2018-09-25T08:13:57.905Z,19.1
2018-09-25T08:14:48.853Z,19.1
2018-09-25T08:15:39.748Z,19.1
2018-09-25T08:16:28.848Z,19.1
2018-09-25T08:17:19.420Z,19.1
2018-09-25T08:18:09.713Z,19.1
2018-09-25T08:18:59.002Z,19.1
2018-09-25T08:19:50.415Z,19.1
2018-09-25T08:20:38.572Z,19.1
2018-09-25T08:21:29.377Z,19
2018-09-25T08:22:20.616Z,19.1
2018-09-25T08:23:10.088Z,19
2018-09-25T08:23:59.627Z,19.1
2018-09-25T08:24:49.742Z,19
2018-09-25T08:25:40.757Z,19.1
2018-09-25T08:26:30.845Z,19.1
2018-09-25T08:27:20.609Z,19
2018-09-25T08:28:10.202Z,19
2018-09-25T08:29:01.276Z,19
2018-09-25T08:29:52.808Z,19.1
2018-09-25T08:30:41.247Z,19
2018-09-25T08:31:30.988Z,19.1
2018-09-25T08:32:20.662Z,19.1
2018-09-25T08:33:10.554Z,19.1
2018-09-25T08:34:01.907Z,19.1
2018-09-25T08:34:51.273Z,19.1
2018-09-25T08:35:41.530Z,19
2018-09-25T08:36:30.802Z,19.1
2018-09-25T08:37:20.958Z,19.1
2018-09-25T08:38:11.424Z,19
2018-09-25T08:39:02.825Z,19
2018-09-25T08:39:50.867Z,19
2018-09-25T08:40:41.974Z,19.1
2018-09-25T08:41:30.629Z,19
2018-09-25T08:42:21.268Z,19.1
2018-09-25T08:43:11.331Z,19
2018-09-25T08:44:02.291Z,19
2018-09-25T08:44:52.191Z,19.1
2018-09-25T08:45:41.684Z,19
2018-09-25T08:46:32.041Z,19.1
2018-09-25T08:47:21.581Z,19
2018-09-25T08:48:11.184Z,19.1
2018-09-25T08:49:02.584Z,19
2018-09-25T08:49:52.553Z,19
2018-09-25T08:50:42.348Z,19
2018-09-25T08:51:32.414Z,19
2018-09-25T08:52:22.726Z,19
2018-09-25T08:53:11.093Z,19
2018-09-25T08:54:02.960Z,19
2018-09-25T08:54:52.390Z,19
2018-09-25T08:55:42.748Z,19
2018-09-25T08:56:32.843Z,19
2018-09-25T08:57:22.934Z,19
2018-09-25T08:58:12.941Z,19
2018-09-25T08:59:03.318Z,19
2018-09-25T08:59:52.784Z,19
2018-09-25T09:00:43.413Z,19.1
2018-09-25T09:01:33.467Z,19
2018-09-25T09:02:23.547Z,19
2018-09-25T09:03:13.287Z,19
2018-09-25T09:04:03.206Z,19
2018-09-25T09:04:53.232Z,19
2018-09-25T09:05:44.062Z,19
2018-09-25T09:06:34.094Z,19
2018-09-25T09:07:23.351Z,19
2018-09-25T09:08:13.416Z,19
2018-09-25T09:09:04.044Z,19
2018-09-25T09:09:54.067Z,19
2018-09-25T09:10:43.916Z,19
2018-09-25T09:11:33.399Z,19
2018-09-25T09:12:24.248Z,19
2018-09-25T09:13:14.334Z,19
2018-09-25T09:14:03.844Z,19
2018-09-25T09:14:53.591Z,19
2018-09-25T09:15:42.497Z,19
2018-09-25T09:16:34.297Z,19
2018-09-25T09:17:23.264Z,19
2018-09-25T09:18:13.878Z,19
2018-09-25T09:19:04.209Z,19
2018-09-25T09:19:56.577Z,19
2018-09-25T09:20:44.004Z,19
2018-09-25T09:21:34.158Z,19
2018-09-25T09:22:24.170Z,19
2018-09-25T09:39:16.663Z,19
2018-09-25T09:40:05.777Z,19
2018-09-25T09:40:55.676Z,19
2018-09-25T09:41:53.542Z,19
2018-09-25T09:42:36.140Z,19
2018-09-25T09:43:26.501Z,19
2018-09-25T09:44:16.047Z,19
2018-09-25T09:45:06.681Z,19
2018-09-25T09:45:56.734Z,19
2018-09-25T09:46:46.815Z,19
2018-09-25T09:47:35.939Z,19
2018-09-25T09:48:26.619Z,19
2018-09-25T09:49:16.927Z,19
2018-09-25T09:50:07.584Z,19
2018-09-25T09:50:56.452Z,19
2018-09-25T09:51:46.822Z,19
2018-09-25T09:52:36.688Z,19
2018-09-25T09:53:26.641Z,19
2018-09-25T09:54:15.907Z,19
2018-09-25T09:55:07.499Z,19
2018-09-25T09:55:55.391Z,19
2018-09-25T09:56:47.206Z,19
2018-09-25T09:57:36.388Z,19
2018-09-25T09:58:26.701Z,19
2018-09-25T09:59:17.640Z,19
2018-09-25T10:00:07.183Z,19
2018-09-25T10:00:57.483Z,19
2018-09-25T10:01:46.703Z,19
2018-09-25T10:02:37.938Z,19
2018-09-25T10:03:27.647Z,19
2018-09-25T10:04:17.277Z,19
2018-09-25T10:05:08.120Z,19
2018-09-25T10:05:58.580Z,19
2018-09-25T10:06:49.702Z,19
2018-09-25T10:07:38.003Z,19
2018-09-25T10:08:28.371Z,19
2018-09-25T10:09:18.437Z,19
2018-09-25T10:10:08.418Z,19
2018-09-25T10:10:57.198Z,19
2018-09-25T10:11:47.533Z,19
2018-09-25T10:12:39.984Z,19
2018-09-25T10:13:27.637Z,19
2018-09-25T10:14:18.100Z,19
2018-09-25T10:15:08.410Z,19
2018-09-25T10:15:58.379Z,19
2018-09-25T10:16:47.592Z,19
2018-09-25T10:17:37.772Z,19
2018-09-25T10:18:27.409Z,19
2018-09-25T10:19:19.163Z,19
2018-09-25T10:20:08.653Z,19
2018-09-25T10:20:58.586Z,19
2018-09-25T10:21:48.850Z,19
2018-09-25T10:22:38.611Z,19
2018-09-25T10:23:29.020Z,19
2018-09-25T10:24:18.278Z,19.1
2018-09-25T10:25:09.151Z,19
2018-09-25T10:25:58.945Z,19
2018-09-25T10:26:49.586Z,19
2018-09-25T10:27:39.901Z,19
2018-09-25T10:28:28.806Z,19.1
2018-09-25T10:29:19.123Z,19
2018-09-25T10:30:09.485Z,19
2018-09-25T10:30:58.696Z,19
2018-09-25T10:31:49.348Z,19.1
2018-09-25T10:32:39.385Z,19
2018-09-25T10:33:29.220Z,19.1
2018-09-25T10:34:21.187Z,19.1
2018-09-25T10:35:09.865Z,19
2018-09-25T10:35:59.470Z,19
2018-09-25T10:36:50.028Z,19.1
2018-09-25T10:37:39.243Z,19
2018-09-25T10:38:30.125Z,19.1
2018-09-25T10:39:20.162Z,19
2018-09-25T10:40:09.753Z,19.1
2018-09-25T10:41:01.288Z,19.1
2018-09-25T10:41:50.353Z,19.1
2018-09-25T10:42:40.767Z,19.1
2018-09-25T10:43:30.197Z,19.1
2018-09-25T10:44:19.797Z,19.1
2018-09-25T10:45:10.565Z,19.1
2018-09-25T10:46:01.239Z,19.1
2018-09-25T10:46:50.660Z,19.1
2018-09-25T10:47:39.699Z,19.1
2018-09-25T10:48:30.479Z,19.1
2018-09-25T10:49:20.694Z,19.1
2018-09-25T10:50:10.948Z,19.1
2018-09-25T10:51:00.615Z,19
2018-09-25T10:51:51.324Z,19.1
2018-09-25T10:52:40.812Z,19.1
2018-09-25T10:53:31.135Z,19.1
2018-09-25T10:54:21.214Z,19.1
2018-09-25T10:55:10.746Z,19.1
2018-09-25T10:56:05.935Z,19.1
2018-09-25T10:56:51.157Z,19.1
2018-09-25T10:57:41.990Z,19.1
2018-09-25T10:58:32.550Z,19.1
2018-09-25T10:59:22.048Z,19.1
2018-09-25T11:00:11.959Z,19.1
2018-09-25T11:01:02.312Z,19.1
2018-09-25T11:01:51.811Z,19.1
2018-09-25T11:02:41.959Z,19.1
2018-09-25T11:03:32.287Z,19.1
2018-09-25T11:04:22.251Z,19.1
2018-09-25T11:05:12.884Z,19.1
2018-09-25T11:06:02.203Z,19.1
2018-09-25T11:06:53.098Z,19.1
2018-09-25T11:07:42.794Z,19.1
2018-09-25T11:08:32.623Z,19.1
2018-09-25T11:09:22.412Z,19.1
2018-09-25T11:10:14.564Z,19.1
2018-09-25T11:11:02.402Z,19.1
2018-09-25T11:11:53.093Z,19.1
2018-09-25T11:12:42.073Z,19.1
2018-09-25T11:13:32.648Z,19.1
2018-09-25T11:14:22.478Z,19.1
2018-09-25T11:15:13.094Z,19.1
2018-09-25T11:16:03.340Z,19.1
2018-09-25T11:16:52.983Z,19.1
2018-09-25T11:17:43.130Z,19.1
2018-09-25T11:18:33.444Z,19.1
2018-09-25T11:19:23.688Z,19.1
2018-09-25T11:20:13.841Z,19.1
2018-09-25T11:21:03.328Z,19.1
2018-09-25T11:21:53.587Z,19.1
2018-09-25T11:22:43.559Z,19.1
2018-09-25T11:23:33.511Z,19.1
2018-09-25T11:24:23.741Z,19.1
2018-09-25T11:25:13.965Z,19.1
2018-09-25T11:26:03.944Z,19.1
2018-09-25T11:26:53.668Z,19.1
2018-09-25T11:27:44.257Z,19.1
2018-09-25T11:28:34.310Z,19.1
2018-09-25T11:29:23.265Z,19.1
2018-09-25T11:30:13.361Z,19.1
2018-09-25T11:31:04.830Z,19.1
2018-09-25T11:31:54.880Z,19.1
2018-09-25T11:32:43.308Z,19.1
2018-09-25T11:33:34.517Z,19.1
2018-09-25T11:34:24.507Z,19.1
2018-09-25T11:35:15.569Z,19.1
2018-09-25T11:36:04.642Z,19.1
2018-09-25T11:36:54.702Z,19.1
2018-09-25T11:37:44.974Z,19.1
2018-09-25T11:38:35.152Z,19.1
2018-09-25T11:39:25.186Z,19.1
2018-09-25T11:40:14.784Z,19.1
2018-09-25T11:41:06.128Z,19.1
2018-09-25T11:41:55.144Z,19.1
2018-09-25T11:42:45.792Z,19.1
2018-09-25T11:43:34.662Z,19.1
2018-09-25T11:44:25.809Z,19.1
2018-09-25T11:45:15.617Z,19.1
2018-09-25T11:46:06.110Z,19.1
2018-09-25T11:46:57.671Z,19.1
2018-09-25T11:47:45.827Z,19.1
2018-09-25T11:48:34.492Z,19.1
2018-09-25T11:49:25.629Z,19.1
2018-09-25T11:50:15.747Z,19.1
2018-09-25T11:51:05.150Z,19.1
2018-09-25T11:51:55.248Z,19.1
2018-09-25T11:52:46.704Z,19.1
2018-09-25T11:53:36.524Z,19.1
2018-09-25T11:54:26.023Z,19.1
2018-09-25T11:55:15.801Z,19.1
2018-09-25T11:56:05.566Z,19.1
2018-09-25T11:56:55.951Z,19.1
2018-09-25T11:57:45.589Z,19.1
2018-09-25T11:58:37.741Z,19.1
2018-09-25T11:59:26.121Z,19.2
2018-09-25T12:00:16.564Z,19.1
2018-09-25T12:01:06.328Z,19.2
2018-09-25T12:01:56.386Z,19.2
2018-09-25T12:02:46.421Z,19.1
2018-09-25T12:03:37.158Z,19.2
2018-09-25T12:04:26.198Z,19.2
2018-09-25T12:05:16.535Z,19.2
2018-09-25T12:06:06.333Z,19.2
2018-09-25T12:06:56.140Z,19.2
2018-09-25T12:07:47.328Z,19.2
2018-09-25T12:08:35.850Z,19.2
2018-09-25T12:09:25.316Z,19.2
2018-09-25T12:10:14.096Z,19.2
2018-09-25T12:11:05.840Z,19.2
2018-09-25T12:11:54.822Z,19.2
2018-09-25T12:12:45.230Z,19.2
2018-09-25T12:13:36.207Z,19.2
2018-09-25T12:14:25.237Z,19.2
2018-09-25T12:15:15.117Z,19.2
2018-09-25T12:16:05.571Z,19.2
2018-09-25T12:16:58.224Z,19.2
2018-09-25T12:17:48.044Z,19.2
2018-09-25T12:18:37.547Z,19.2
2018-09-25T12:19:26.818Z,19.2
2018-09-25T12:20:15.989Z,19.2
2018-09-25T12:21:07.739Z,19.2
2018-09-25T12:21:57.772Z,19.2
2018-09-25T12:22:48.151Z,19.2
2018-09-25T12:23:39.624Z,19.2
2018-09-25T12:24:30.021Z,19.2
2018-09-25T12:25:18.307Z,19.2
2018-09-25T12:26:08.687Z,19.2
2018-09-25T12:26:57.643Z,19.2
2018-09-25T12:27:47.981Z,19.2
2018-09-25T12:28:38.590Z,19.2
2018-09-25T12:29:28.353Z,19.2
2018-09-25T12:30:18.661Z,19.2
2018-09-25T12:31:08.786Z,19.2
2018-09-25T12:31:57.666Z,19.3
2018-09-25T12:32:52.143Z,19.3
2018-09-25T12:33:38.389Z,19.3
2018-09-25T12:34:28.691Z,19.3
2018-09-25T12:35:18.523Z,19.2
2018-09-25T12:36:08.828Z,19.2
2018-09-25T12:36:59.186Z,19.3
2018-09-25T12:37:49.793Z,19.2
2018-09-25T12:38:39.864Z,19.3
2018-09-25T12:39:29.325Z,19.3
2018-09-25T12:40:18.979Z,19.3
2018-09-25T12:41:09.945Z,19.3
2018-09-25T12:41:58.990Z,19.3
2018-09-25T12:42:49.882Z,19.3
2018-09-25T12:43:39.348Z,19.3
2018-09-25T12:44:29.755Z,19.3
2018-09-25T12:45:18.915Z,19.3
2018-09-25T12:46:10.147Z,19.3
2018-09-25T12:47:00.217Z,19.3
2018-09-25T12:47:49.412Z,19.3
2018-09-25T12:48:39.980Z,19.3
2018-09-25T12:49:28.702Z,19.3
2018-09-25T12:50:20.150Z,19.3
2018-09-25T12:51:09.654Z,19.3
2018-09-25T12:52:00.007Z,19.3
2018-09-25T12:52:50.624Z,19.3
2018-09-25T12:53:40.422Z,19.3
2018-09-25T12:54:30.791Z,19.3
2018-09-25T12:55:20.197Z,19.3
2018-09-25T12:56:10.314Z,19.3
2018-09-25T12:57:00.183Z,19.3
2018-09-25T12:57:51.259Z,19.3
2018-09-25T12:58:40.752Z,19.3
2018-09-25T12:59:30.859Z,19.3
2018-09-25T13:00:20.077Z,19.3
2018-09-25T13:01:10.947Z,19.3
2018-09-25T13:02:01.036Z,19.3
2018-09-25T13:02:51.114Z,19.3
2018-09-25T13:03:40.931Z,19.3
2018-09-25T13:04:30.437Z,19.3
2018-09-25T13:05:21.055Z,19.3
2018-09-25T13:06:11.996Z,19.3
2018-09-25T13:07:00.853Z,19.3
2018-09-25T13:07:51.201Z,19.3
2018-09-25T13:08:41.641Z,19.3
2018-09-25T13:09:32.032Z,19.3
2018-09-25T13:10:22.073Z,19.3
2018-09-25T13:11:11.496Z,19.3
2018-09-25T13:12:01.539Z,19.3
2018-09-25T13:12:51.033Z,19.3
2018-09-25T13:13:41.180Z,19.3
2018-09-25T13:14:31.753Z,19.3
2018-09-25T13:15:22.312Z,19.3
2018-09-25T13:16:13.386Z,19.3
2018-09-25T13:17:01.910Z,19.3
2018-09-25T13:17:52.550Z,19.3
2018-09-25T13:18:42.617Z,19.3
2018-09-25T13:19:31.249Z,19.3
2018-09-25T13:20:21.945Z,19.3
2018-09-25T13:21:13.031Z,19.3
2018-09-25T13:22:01.968Z,19.3
2018-09-25T13:22:52.923Z,19.3
2018-09-25T13:23:43.247Z,19.3
2018-09-25T13:24:32.770Z,19.3
2018-09-25T13:25:23.051Z,19.3
2018-09-25T13:26:12.822Z,19.3
2018-09-25T13:27:02.465Z,19.3
2018-09-25T13:27:53.295Z,19.3
2018-09-25T13:28:42.938Z,19.3
2018-09-25T13:29:33.290Z,19.3
2018-09-25T13:30:22.345Z,19.3
2018-09-25T13:31:13.210Z,19.3
2018-09-25T13:32:03.842Z,19.3
2018-09-25T13:32:53.333Z,19.3
2018-09-25T13:33:42.902Z,19.3
2018-09-25T13:34:33.549Z,19.3
2018-09-25T13:35:23.887Z,19.3
2018-09-25T13:36:13.031Z,19.3
2018-09-25T13:37:03.644Z,19.4
2018-09-25T13:37:53.468Z,19.4
2018-09-25T13:38:43.799Z,19.4
2018-09-25T13:39:33.811Z,19.4
2018-09-25T13:40:23.651Z,19.4
2018-09-25T13:41:14.059Z,19.4
2018-09-25T13:42:04.192Z,19.4
2018-09-25T13:42:54.414Z,19.4
2018-09-25T13:43:44.444Z,19.4
2018-09-25T13:44:32.999Z,19.4
2018-09-25T13:45:23.823Z,19.4
2018-09-25T13:46:13.817Z,19.4
2018-09-25T13:47:04.393Z,19.4
2018-09-25T13:47:54.736Z,19.4
2018-09-25T13:48:43.403Z,19.4
2018-09-25T13:49:34.631Z,19.4
2018-09-25T13:50:24.226Z,19.4
2018-09-25T13:51:14.737Z,19.4
2018-09-25T13:52:05.699Z,19.4
2018-09-25T13:52:54.029Z,19.4
2018-09-25T13:53:44.904Z,19.4
2018-09-25T13:54:34.806Z,19.4
2018-09-25T13:55:25.123Z,19.4
2018-09-25T13:56:17.157Z,19.4
2018-09-25T13:57:05.486Z,19.4
2018-09-25T13:57:55.246Z,19.4
2018-09-25T13:58:44.994Z,19.4
2018-09-25T13:59:35.076Z,19.4
2018-09-25T14:00:25.427Z,19.4
2018-09-25T14:01:14.916Z,19.4
2018-09-25T14:02:05.522Z,19.4
2018-09-25T14:02:55.918Z,19.4